sim
Sign-in with your pilot id or email,
or register
Callsign
Passwort

Schedule Details

Flight Number: OEO4203
Departure: Casablanca Mohammed V International Airport (GMMN) at 11:30
Arrival: Munich Airport (EDDM) at 14:50

Weather Information
Getting current METAR information for GMMN 280900Z 04007KT CAVOK 20/16 Q1014 NOSIG
Getting current METAR information for EDDM 280850Z VRB01KT 9999 -RA FEW005 BKN045 07/06 Q1011 NOSIG

Schedule Frequency

Route Map